Latest Weather Observations for Avalon

IDV60901

Issued at 10:55 am EDT Saturday 29 November 2014 (issued every 10 minutes, with the page automatically refreshed every 10 minutes)

About weather observations | Map of Melbourne area stations | Latest observations for Melbourne area | Other Formats
Station Details ID: 087113 Name: AVALON AIRPORT Lat: -38.03 Lon: 144.48 Height: 10.6 m
Data from the previous 72 hours. | See also: Recent months at Avalon
Date/Time
EDT
Tmp

°C
App
Tmp
°C
Dew
Point
°C
Rel
Hum
%
Delta-T

°C
Wind Press
QNH
hPa
Press
MSL
hPa
Rain
since
9 am
mm
Dir
 
Spd
km/h
Gust
km/h
Spd
kts
Gust
kts
29/10:30am 17.6 14.7 12.3 71 2.9 SSE 19 22 10 12 1016.6 1016.6 0.0
29/10:00am 16.8 14.9 11.9 73 2.7 E 13 19 7 10 1016.9 1016.9 0.0
29/09:30am 15.9 14.0 11.7 76 2.3 ENE 13 17 7 9 1017.3 1017.3 0.0
29/09:00am 15.2 13.7 11.8 80 1.8 NE 11 17 6 9 1017.8 1017.8 0.0
29/08:30am 14.6 13.4 11.6 82 1.6 E 9 13 5 7 1017.9 1017.9 0.0
29/08:00am 14.2 13.9 11.5 84 1.4 NE 4 7 2 4 1018.0 1018.0 0.0
29/07:30am 13.6 11.9 11.3 86 1.2 E 11 11 6 6 1018.1 1018.1 0.0
29/07:00am 13.4 11.8 11.6 89 1.0 SSE 11 15 6 8 1018.1 1018.1 0.0
29/06:30am 13.1 11.2 11.7 91 0.7 S 13 15 7 8 1018.0 1018.0 0.0
29/06:00am 12.5 11.8 12.0 97 0.3 S 7 13 4 7 1017.9 1017.9 0.0
29/05:30am 10.7 10.0 10.2 97 0.3 W 4 6 2 3 1017.9 1017.9 0.0
29/05:00am 9.3 9.0 8.7 96 0.3 CALM 0 0 0 0 1017.8 1017.8 0.0
29/04:30am 9.1 7.5 8.2 94 0.4 WNW 6 7 3 4 1017.7 1017.7 0.0
29/04:00am 8.8 8.3 7.7 93 0.5 CALM 0 0 0 0 1017.7 1017.7 0.0
29/03:30am 9.3 8.5 8.2 93 0.5 SW 2 6 1 3 1017.8 1017.8 0.0
29/03:00am 9.7 9.4 8.5 92 0.6 CALM 0 4 0 2 1017.9 1017.9 0.0
29/02:30am 9.7 8.6 8.6 93 0.5 WNW 4 7 2 4 1018.2 1018.2 0.0
29/02:00am 8.8 7.8 7.4 91 0.7 SSW 2 7 1 4 1018.3 1018.3 0.0
29/01:30am 9.3 7.6 7.7 90 0.8 SW 6 7 3 4 1018.5 1018.5 0.0
29/01:00am 10.2 8.2 8.8 91 0.7 S 9 11 5 6 1018.9 1018.9 0.0
29/12:30am 10.4 8.4 8.7 89 0.8 S 9 11 5 6 1019.3 1019.3 0.0
29/12:00am 10.4 8.0 8.7 89 0.8 S 11 11 6 6 1019.8 1019.8 0.0
 
Date/Time
EDT
Tmp

°C
App
Tmp
°C
Dew
Point
°C
Rel
Hum
%
Delta-T

°C
Wind Press
QNH
hPa
Press
MSL
hPa
Rain
since
9 am
mm
Dir
 
Spd
km/h
Gust
km/h
Spd
kts
Gust
kts
28/11:30pm 10.8 8.5 9.1 89 0.8 S 11 13 6 7 1020.2 1020.2 0.0
28/11:00pm 10.5 8.0 8.3 86 1.1 SSE 11 13 6 7 1020.7 1020.7 0.0
28/10:30pm 11.5 8.8 9.1 85 1.2 SSE 13 15 7 8 1021.0 1021.0 0.0
28/10:00pm 11.8 9.1 9.0 83 1.4 SSE 13 15 7 8 1021.1 1021.1 0.0
28/09:30pm 12.8 9.1 9.6 81 1.6 S 19 24 10 13 1020.9 1020.9 0.0
28/09:00pm 13.1 9.8 9.5 79 1.8 S 17 22 9 12 1020.8 1020.8 0.0
28/08:30pm 13.6 9.3 9.5 76 2.1 S 22 30 12 16 1020.5 1020.5 0.0
28/08:00pm 14.5 9.8 9.3 71 2.7 S 24 30 13 16 1020.3 1020.3 0.0
28/07:30pm 15.2 10.1 9.3 68 3.0 S 26 33 14 18 1020.3 1020.3 0.0
28/07:00pm 16.4 11.0 9.6 64 3.5 S 28 35 15 19 1020.2 1020.2 0.0
28/06:30pm 17.2 12.2 9.6 61 4.0 S 26 33 14 18 1019.9 1019.9 0.0
28/06:00pm 17.7 12.7 9.6 59 4.2 S 26 32 14 17 1019.7 1019.7 0.0
28/05:30pm 18.2 13.6 9.8 58 4.4 S 24 32 13 17 1019.8 1019.8 0.0
28/05:00pm 18.7 14.3 10.3 58 4.5 S 24 32 13 17 1020.0 1020.0 0.0
28/04:30pm 19.0 14.9 10.0 56 4.8 S 22 32 12 17 1020.1 1020.1 0.0
28/04:00pm 19.0 14.1 10.0 56 4.8 S 26 37 14 20 1020.2 1020.2 0.0
28/03:30pm 19.1 14.6 9.9 55 4.9 S 24 32 13 17 1020.8 1020.8 0.0
28/03:00pm 20.0 16.4 10.4 54 5.2 SSE 20 28 11 15 1021.0 1021.0 0.0
28/02:30pm 19.0 15.0 8.9 52 5.3 S 20 28 11 15 1021.2 1021.2 0.0
28/02:00pm 19.3 15.5 9.8 54 5.0 S 20 32 11 17 1021.8 1021.8 0.0
28/01:30pm 18.1 15.0 8.9 55 4.8 SE 15 26 8 14 1022.4 1022.4 0.0
28/01:00pm 17.7 14.6 8.8 56 4.6 SE 15 24 8 13 1022.7 1022.7 0.0
28/12:30pm 17.9 14.6 9.5 58 4.4 SE 17 24 9 13 1022.8 1022.8 0.0
28/12:00pm 17.6 14.5 8.7 56 4.6 ESE 15 24 8 13 1023.0 1023.0 0.0
28/11:30am 17.3 14.0 8.2 55 4.6 E 15 20 8 11 1023.1 1023.1 0.0
28/11:00am 17.3 14.2 9.0 58 4.3 E 15 20 8 11 1023.2 1023.2 0.0
28/10:30am 16.6 13.7 8.3 58 4.2 SE 13 22 7 12 1023.7 1023.7 0.0
28/10:00am 16.3 14.2 8.3 59 4.0 S 9 17 5 9 1024.1 1024.1 0.0
28/09:30am 14.9 12.2 7.5 61 3.7 SSE 11 15 6 8 1024.5 1024.5 0.0
28/09:00am 14.8 12.2 7.8 63 3.5 SE 11 17 6 9 1024.6 1024.6 0.0
28/08:30am 14.5 11.2 8.2 66 3.2 S 15 20 8 11 1024.3 1024.3 0.0
28/08:00am 14.0 11.2 8.4 69 2.8 SSE 13 17 7 9 1024.4 1024.4 0.0
28/07:30am 13.6 10.0 8.4 71 2.6 S 17 20 9 11 1024.2 1024.2 0.0
28/07:00am 13.4 11.1 9.1 75 2.2 SSE 11 17 6 9 1024.0 1024.0 0.0
28/06:30am 12.6 9.8 8.7 77 1.9 SSE 13 15 7 8 1023.7 1023.7 0.0
28/06:00am 12.2 9.4 8.5 78 1.8 S 13 17 7 9 1023.5 1023.5 0.0
28/05:30am 12.0 9.1 8.1 77 1.9 S 13 19 7 10 1023.2 1023.2 0.0
28/05:00am 12.3 9.0 8.2 76 2.0 S 15 17 8 9 1023.0 1023.0 0.0
28/04:30am 12.8 9.2 8.5 75 2.1 S 17 20 9 11 1022.7 1022.7 0.0
28/04:00am 12.7 9.9 8.6 76 2.0 S 13 20 7 11 1022.6 1022.6 0.0
28/03:30am 12.7 9.1 8.4 75 2.1 SSE 17 20 9 11 1022.7 1022.7 0.0
28/03:00am 12.3 9.0 8.2 76 2.0 SE 15 20 8 11 1022.7 1022.7 0.0
28/02:30am 12.7 9.9 8.4 75 2.1 SSE 13 17 7 9 1022.8 1022.8 0.0
28/02:00am 12.3 9.9 8.6 78 1.8 SSE 11 13 6 7 1023.2 1023.2 0.0
28/01:30am 12.2 9.3 8.3 77 1.9 SE 13 15 7 8 1023.3 1023.3 0.0
28/01:00am 12.5 10.1 8.6 77 1.9 SSE 11 15 6 8 1024.0 1024.0 0.0
28/12:30am 12.7 10.3 8.8 77 2.0 SSE 11 15 6 8 1024.3 1024.3 0.0
28/12:00am 12.5 9.8 8.8 78 1.8 SSE 13 15 7 8 1024.3 1024.3 0.0
 
Date/Time
EDT
Tmp

°C
App
Tmp
°C
Dew
Point
°C
Rel
Hum
%
Delta-T

°C
Wind Press
QNH
hPa
Press
MSL
hPa
Rain
since
9 am
mm
Dir
 
Spd
km/h
Gust
km/h
Spd
kts
Gust
kts
27/11:30pm 12.8 10.0 8.5 75 2.1 SSE 13 19 7 10 1024.6 1024.6 0.0
27/11:00pm 13.0 9.9 8.9 76 2.0 SSE 15 19 8 10 1024.9 1024.9 0.0
27/10:30pm 12.7 9.2 8.6 76 2.0 SSE 17 22 9 12 1025.0 1025.0 0.0
27/10:00pm 12.9 9.4 8.8 76 2.0 SSE 17 22 9 12 1025.0 1025.0 0.0
27/09:30pm 12.8 8.9 8.7 76 2.0 SSE 19 22 10 12 1025.0 1025.0 0.0
27/09:00pm 11.4 8.8 7.9 79 1.7 SSE 11 15 6 8 1024.9 1024.9 0.0
27/08:30pm 11.9 8.5 7.8 76 2.0 SSE 15 17 8 9 1024.8 1024.8 0.0
27/08:00pm 13.5 9.4 7.9 69 2.8 S 19 26 10 14 1024.7 1024.7 0.0
27/07:30pm 14.7 10.7 8.4 66 3.2 S 19 22 10 12 1024.8 1024.8 0.0
27/07:00pm 15.4 11.3 8.6 64 3.4 S 20 26 11 14 1024.8 1024.8 0.0
27/06:30pm 15.7 10.7 8.0 60 3.9 S 24 33 13 18 1024.7 1024.7 0.0
27/06:00pm 16.1 11.0 7.8 58 4.1 S 24 33 13 18 1024.6 1024.6 0.0
27/05:30pm 16.6 11.2 7.8 56 4.4 S 26 35 14 19 1024.8 1024.8 0.0
27/05:00pm 17.2 12.1 7.8 54 4.7 S 24 33 13 18 1024.9 1024.9 0.0
27/04:30pm 17.2 12.9 7.8 54 4.8 S 20 32 11 17 1024.8 1024.8 0.0
27/04:00pm 18.1 13.5 8.1 52 5.1 S 22 32 12 17 1025.0 1025.0 0.0
27/03:30pm 17.5 12.4 7.8 53 4.9 S 24 37 13 20 1025.2 1025.2 0.0
27/03:00pm 18.1 13.2 8.4 53 5.0 S 24 39 13 21 1025.4 1025.4 0.0
27/02:30pm 17.5 12.3 7.3 51 5.1 SSE 24 32 13 17 1025.7 1025.7 0.0
27/02:00pm 18.1 12.7 7.8 51 5.2 S 26 35 14 19 1025.6 1025.6 0.0
27/01:30pm 17.8 13.3 8.6 55 4.7 S 22 32 12 17 1025.7 1025.7 0.0
27/01:00pm 17.2 12.1 7.5 53 4.8 SE 24 32 13 17 1025.7 1025.7 0.0
27/12:30pm 17.3 12.9 7.6 53 4.9 S 20 37 11 20 1025.9 1025.9 0.0
27/12:00pm 17.2 12.8 7.5 53 4.8 SSE 20 35 11 19 1026.1 1026.1 0.0
27/11:30am 16.5 12.0 6.9 53 4.7 S 20 30 11 16 1026.4 1026.4 0.0
27/11:00am 15.9 11.4 6.9 55 4.4 S 20 32 11 17 1026.4 1026.4 0.0
27/10:30am 15.8 11.3 6.3 53 4.6 SSE 19 28 10 15 1026.5 1026.5 0.0
27/10:00am 15.3 11.0 7.1 58 4.0 S 19 26 10 14 1026.6 1026.6 0.0
27/09:30am 15.7 11.3 7.5 58 4.1 S 20 30 11 16 1026.5 1026.5 0.0
27/09:00am 14.7 10.0 6.0 56 4.1 S 20 26 11 14 1026.6 1026.6 0.0
27/08:30am 14.2 10.2 6.6 60 3.7 SSE 17 22 9 12 1026.4 1026.4 0.0
27/08:00am 13.9 10.6 6.3 60 3.6 SSE 13 17 7 9 1026.2 1026.2 0.0
27/07:30am 13.6 9.1 6.0 60 3.6 S 19 22 10 12 1026.0 1026.0 0.0
27/07:00am 13.3 8.9 6.6 64 3.2 SSE 19 24 10 13 1025.6 1025.6 0.0
27/06:30am 12.8 10.3 6.6 66 3.0 S 9 13 5 7 1025.4 1025.4 0.0
27/06:00am 12.7 8.9 5.8 63 3.2 S 15 19 8 10 1025.0 1025.0 0.0
27/05:30am 12.6 9.7 6.4 66 2.9 S 11 15 6 8 1024.7 1024.7 0.0
27/05:00am 12.7 9.4 6.3 65 3.0 S 13 17 7 9 1024.6 1024.6 0.0
27/04:30am 12.7 8.9 5.8 63 3.2 S 15 22 8 12 1024.4 1024.4 0.0
27/04:00am 12.8 8.7 6.4 65 3.0 S 17 22 9 12 1024.1 1024.1 0.0
27/03:30am 12.7 9.7 5.8 63 3.2 S 11 15 6 8 1023.9 1023.9 0.0
27/03:00am 13.0 8.8 5.9 62 3.3 S 17 22 9 12 1024.1 1024.1 0.0
27/02:30am 13.3 9.2 6.2 62 3.4 S 17 22 9 12 1024.1 1024.1 0.0
27/02:00am 13.3 10.0 6.4 63 3.3 S 13 20 7 11 1024.2 1024.2 0.0
27/01:30am 13.2 10.3 6.3 63 3.3 S 11 15 6 8 1024.3 1024.3 0.0
27/01:00am 13.3 8.5 5.5 59 3.6 S 20 26 11 14 1024.7 1024.7 0.0
27/12:30am 13.4 9.3 6.3 62 3.4 SSW 17 22 9 12 1024.9 1024.9 0.0
27/12:00am 13.4 8.9 6.0 61 3.5 SSW 19 24 10 13 1025.0 1025.0 0.0
 
Date/Time
EDT
Tmp

°C
App
Tmp
°C
Dew
Point
°C
Rel
Hum
%
Delta-T

°C
Wind Press
QNH
hPa
Press
MSL
hPa
Rain
since
9 am
mm
Dir
 
Spd
km/h
Gust
km/h
Spd
kts
Gust
kts
26/11:30pm 13.0 7.6 6.4 64 3.1 S 24 32 13 17 1024.8 1024.8 0.0
26/11:00pm 13.7 7.2 6.3 61 3.5 S 30 35 16 19 1024.6 1024.6 0.0
26/10:30pm 14.0 8.2 7.8 66 3.1 S 28 35 15 19 1024.6 1024.6 0.0
26/10:00pm 14.1 9.1 8.1 67 3.0 SSW 24 30 13 16 1024.4 1024.4 0.0
26/09:30pm 14.2 9.7 8.6 69 2.8 S 22 28 12 15 1024.1 1024.1 0.0
26/09:00pm 14.2 10.1 8.8 70 2.7 S 20 26 11 14 1023.8 1023.8 0.0
26/08:30pm 14.3 9.8 8.5 68 2.9 S 22 32 12 17 1023.7 1023.7 0.0
26/08:00pm 14.5 10.0 8.7 68 2.9 S 22 30 12 16 1023.5 1023.5 0.0
26/07:30pm 15.0 10.2 8.9 67 3.1 S 24 32 13 17 1023.4 1023.4 0.0
26/07:00pm 15.0 9.8 8.7 66 3.2 S 26 32 14 17 1023.0 1023.0 0.0
26/06:30pm 15.4 10.7 9.3 67 3.1 S 24 30 13 16 1022.7 1022.7 0.0
26/06:00pm 15.7 10.7 9.6 67 3.2 S 26 35 14 19 1022.5 1022.5 0.0
26/05:30pm 15.7 10.5 10.2 70 2.9 S 28 33 15 18 1022.4 1022.4 0.0
26/05:00pm 15.7 10.9 10.2 70 2.9 S 26 33 14 18 1022.3 1022.3 0.0
26/04:30pm 16.0 11.3 10.7 71 2.8 S 26 33 14 18 1022.2 1022.2 0.0
26/04:00pm 15.7 11.4 11.9 78 2.1 S 26 32 14 17 1022.2 1022.2 0.0
26/03:47pm 15.2 10.0 11.6 79 1.9 S 30 37 16 20 1022.2 1022.2 0.0
26/03:31pm 15.3 10.7 12.4 83 1.6 S 28 35 15 19 1022.2 1022.2 0.0
26/03:30pm 15.2 10.6 12.3 83 1.6 S 28 35 15 19 1022.2 1022.2 0.0
26/03:00pm 15.9 10.4 11.9 77 2.2 S 32 39 17 21 1022.0 1022.0 0.0
26/02:30pm 16.8 11.4 12.7 77 2.3 S 33 39 18 21 1021.8 1021.8 0.0
26/02:00pm 17.2 11.1 11.7 70 3.0 S 35 43 19 23 1021.5 1021.5 0.0
26/01:30pm 18.9 15.0 9.4 54 5.0 WSW 20 30 11 16 1021.3 1021.3 0.0
26/01:00pm 19.0 15.4 10.0 56 4.8 SW 19 26 10 14 1021.4 1021.4 0.0
26/12:30pm 19.0 16.1 9.5 54 5.0 SW 15 22 8 12 1021.3 1021.3 0.0
26/12:00pm 18.9 15.6 9.4 54 5.0 WSW 17 26 9 14 1021.5 1021.5 0.0
26/11:30am 17.7 13.7 9.1 57 4.5 W 20 33 11 18 1021.7 1021.7 0.0
26/11:00am 17.9 14.6 9.5 58 4.4 W 17 28 9 15 1021.5 1021.5 0.0

Latest Capital City Observations: Canberra | Sydney | Melbourne | Brisbane | Adelaide | Perth | Hobart | Darwin

Other Formats:

Comma delimited format used in spreadsheet applications
http://www.bom.gov.au/fwo/IDV60901/IDV60901.94854.axf

JavaScript Object Notation format (JSON) in row-major order
http://www.bom.gov.au/fwo/IDV60901/IDV60901.94854.json